createdAt,value
2022-08-17T00:00:51.936Z,1008.81
2022-08-17T00:28:54.084Z,1009.03
2022-08-17T00:57:38.165Z,1009.19
2022-08-17T01:26:16.859Z,1009.33
2022-08-17T01:55:00.586Z,1010.22
2022-08-17T02:23:47.926Z,1010.35
2022-08-17T02:52:40.579Z,1010.22
2022-08-17T03:20:49.381Z,1010.41
2022-08-17T03:49:36.820Z,1010.82
2022-08-17T04:18:26.723Z,1010.87
2022-08-17T04:46:53.466Z,1010.69
2022-08-17T05:15:27.831Z,1010.58
2022-08-17T05:44:08.409Z,1011.27
2022-08-17T06:12:50.517Z,1011.09
2022-08-17T06:41:15.931Z,1010.32
2022-08-17T07:09:51.551Z,1009.85
2022-08-17T07:38:36.365Z,1010.11
2022-08-17T08:07:17.527Z,1010.01
2022-08-17T08:35:47.780Z,1010.75
2022-08-17T09:05:13.236Z,1011.49
2022-08-17T09:33:04.180Z,1012.53
2022-08-17T10:01:42.754Z,1012.7
2022-08-17T10:30:17.180Z,1012.55
2022-08-17T10:58:47.799Z,1011.5
2022-08-17T11:27:37.392Z,1011.45
2022-08-17T11:56:07.620Z,1011.46
2022-08-17T12:24:42.139Z,1011.08
2022-08-17T12:53:10.897Z,1010.96
2022-08-17T13:21:49.473Z,1010.65
2022-08-17T13:50:28.143Z,1010.39
2022-08-17T14:19:12.327Z,1010.08
2022-08-17T14:47:35.438Z,1010.29
2022-08-17T15:16:06.023Z,1009.72
2022-08-17T15:44:41.893Z,1010.03
2022-08-17T16:13:26.148Z,1010.03
2022-08-17T16:42:01.313Z,1009.91
2022-08-17T17:10:27.447Z,1009.6
2022-08-17T17:39:04.077Z,1009.22
2022-08-17T18:07:34.104Z,1009.56
2022-08-17T18:36:08.755Z,1010.27
2022-08-17T19:04:51.143Z,1010.93
2022-08-17T19:33:34.933Z,1011.22
2022-08-17T20:02:04.312Z,1011.47
2022-08-17T20:30:40.299Z,1011.95
2022-08-17T20:59:18.033Z,1012.41
2022-08-17T21:27:52.271Z,1012.24
2022-08-17T21:56:16.628Z,1012.64
2022-08-17T22:24:40.232Z,1013.84
2022-08-17T22:53:17.718Z,1013.96
2022-08-17T23:21:58.250Z,1013.75
2022-08-17T23:50:31.746Z,1013.3
